createdAt,value
2022-08-22T03:51:00.711Z,99706.63
2022-08-22T03:54:14.837Z,99706.63
2022-08-22T03:57:49.419Z,99709.72
2022-08-22T04:01:07.962Z,99712.09
2022-08-22T04:04:31.964Z,99717.66
2022-08-22T04:07:51.191Z,99718.16
2022-08-22T04:11:18.097Z,99711.66
2022-08-22T04:14:38.125Z,99716.19
2022-08-22T04:17:48.674Z,99719.87
2022-08-22T04:20:59.823Z,99724.09
2022-08-22T04:24:27.468Z,99720.53
2022-08-22T04:27:55.722Z,99718.53
2022-08-22T04:31:13.197Z,99719.22
2022-08-22T04:34:24.564Z,99725.94
2022-08-22T04:37:46.257Z,99732.16
2022-08-22T04:40:55.690Z,99729.75
2022-08-22T04:44:05.549Z,99731.34
2022-08-22T04:47:58.744Z,99742.09
2022-08-22T04:51:06.325Z,99739.19
2022-08-22T04:54:24.367Z,99737.31
2022-08-22T04:57:48.405Z,99736.31
2022-08-22T05:01:04.409Z,99743.97
2022-08-22T05:04:12.639Z,99745.53
2022-08-22T05:07:21.440Z,99743.38
2022-08-22T05:10:27.128Z,99738.44
2022-08-22T05:13:33.197Z,99741.41
2022-08-22T05:16:41.863Z,99751.69
2022-08-22T05:19:50.557Z,99745.31
2022-08-22T05:22:58.197Z,99741.63
2022-08-22T05:26:03.998Z,99755.94
2022-08-22T05:29:11.712Z,99759.88
2022-08-22T05:32:29.722Z,99759.50
2022-08-22T05:35:39.804Z,99757.31
2022-08-22T05:38:51.146Z,99763.44
2022-08-22T05:42:03.620Z,99769.28
2022-08-22T05:45:12.230Z,99770.16
2022-08-22T05:48:24.945Z,99779.53
2022-08-22T05:51:44.265Z,99770.63
2022-08-22T05:54:59.157Z,99773.75
2022-08-22T05:58:35.518Z,99775.25
2022-08-22T06:01:51.978Z,99776.34
2022-08-22T06:05:00.874Z,99781.97
2022-08-22T06:08:21.260Z,99787.13
2022-08-22T06:11:33.776Z,99779.78
2022-08-22T06:14:45.684Z,99796.28
2022-08-22T06:17:52.405Z,99782.38
2022-08-22T06:20:56.033Z,99792.09
2022-08-22T06:24:03.678Z,99794.13
2022-08-22T06:27:11.285Z,99796.38
2022-08-22T06:30:16.922Z,99786.28
2022-08-22T06:33:24.634Z,99792.12
2022-08-22T06:36:30.651Z,99797.22
2022-08-22T06:39:34.270Z,99795.75
2022-08-22T06:42:44.204Z,99806.28
2022-08-22T06:45:46.998Z,99801.41
2022-08-22T06:48:49.864Z,99801.00
2022-08-22T06:51:53.662Z,99804.59
2022-08-22T06:55:02.042Z,99799.81
2022-08-22T06:58:17.378Z,99800.66
2022-08-22T07:01:27.465Z,99792.97
2022-08-22T07:04:31.135Z,99802.87
2022-08-22T07:07:36.321Z,99798.66
2022-08-22T07:10:44.271Z,99801.81
2022-08-22T07:13:53.649Z,99799.50
2022-08-22T07:17:00.458Z,99800.59
2022-08-22T07:20:27.414Z,99809.53
2022-08-22T07:23:45.866Z,99815.84
2022-08-22T07:27:31.726Z,99816.69
2022-08-22T07:30:57.575Z,99815.53
2022-08-22T07:34:25.993Z,99810.16
2022-08-22T07:37:43.421Z,99810.50
2022-08-22T07:41:17.823Z,99812.16
2022-08-22T07:44:26.860Z,99820.44
2022-08-22T07:48:03.813Z,99817.75
2022-08-22T07:51:15.914Z,99811.22
2022-08-22T07:54:42.897Z,99814.72
2022-08-22T07:57:52.988Z,99826.00
2022-08-22T08:00:56.617Z,99821.31
2022-08-22T08:04:02.470Z,99821.28
2022-08-22T08:07:08.349Z,99826.41
2022-08-22T08:10:16.230Z,99824.03
2022-08-22T08:13:26.472Z,99823.25
2022-08-22T08:16:34.439Z,99826.69
2022-08-22T08:19:40.406Z,99827.44
2022-08-22T08:22:46.254Z,99830.84
2022-08-22T08:25:57.689Z,99828.91
2022-08-22T08:29:03.343Z,99840.31
2022-08-22T08:32:09.977Z,99838.81
2022-08-22T08:35:42.421Z,99833.44
2022-08-22T08:39:16.537Z,99826.53
2022-08-22T08:42:56.467Z,99825.78
2022-08-22T08:46:27.938Z,99820.09
2022-08-22T08:49:42.847Z,99822.84
2022-08-22T08:53:03.061Z,99822.41
2022-08-22T08:56:38.205Z,99827.88
2022-08-22T09:00:07.050Z,99827.00
2022-08-22T09:03:09.354Z,99826.25
2022-08-22T09:06:59.237Z,99827.53
2022-08-22T09:10:34.605Z,99825.19
2022-08-22T09:14:06.346Z,99828.44
2022-08-22T09:17:44.677Z,99819.19
2022-08-22T09:21:02.625Z,99827.84
2022-08-22T09:24:23.182Z,99821.22
2022-08-22T09:27:35.670Z,99824.44
2022-08-22T09:31:48.371Z,99826.84
2022-08-22T09:35:01.497Z,99830.34
2022-08-22T09:38:03.739Z,99824.16
2022-08-22T09:41:27.302Z,99822.59
2022-08-22T09:44:59.405Z,99819.88
2022-08-22T09:48:18.593Z,99827.31
2022-08-22T09:51:55.969Z,99833.97
2022-08-22T09:55:36.287Z,99831.22
2022-08-22T09:59:11.994Z,99833.94
2022-08-22T10:02:22.658Z,99834.31
2022-08-22T10:05:43.772Z,99835.50
2022-08-22T10:09:12.449Z,99833.94
2022-08-22T10:12:24.716Z,99835.91
2022-08-22T10:15:42.008Z,99842.94
2022-08-22T10:19:10.926Z,99848.06
2022-08-22T10:22:30.013Z,99837.94
2022-08-22T10:26:01.623Z,99837.94
2022-08-22T10:29:49.195Z,99845.81
2022-08-22T10:33:12.291Z,99842.66
2022-08-22T10:36:27.938Z,99842.31
2022-08-22T10:39:52.969Z,99849.00
2022-08-22T10:43:15.114Z,99839.19
2022-08-22T10:46:24.768Z,99834.91
2022-08-22T10:49:35.277Z,99837.31
2022-08-22T10:52:49.163Z,99842.41
2022-08-22T10:55:58.414Z,99833.06
2022-08-22T10:59:05.858Z,99833.06
2022-08-22T11:02:30.711Z,99828.34
2022-08-22T11:05:42.880Z,99829.94
2022-08-22T11:09:03.546Z,99826.09
2022-08-22T11:12:19.183Z,99829.97
2022-08-22T11:15:55.007Z,99828.84
2022-08-22T11:19:24.042Z,99821.00
2022-08-22T11:22:34.221Z,99829.62
2022-08-22T11:25:53.974Z,99831.59
2022-08-22T11:29:13.386Z,99833.91
2022-08-22T11:32:28.881Z,99830.78
2022-08-22T11:35:41.655Z,99821.75
2022-08-22T11:38:59.422Z,99819.84
2022-08-22T11:42:13.394Z,99824.16
2022-08-22T11:45:21.685Z,99821.81
2022-08-22T11:48:35.558Z,99819.50
2022-08-22T11:51:58.017Z,99815.16
2022-08-22T11:55:34.650Z,99805.00
2022-08-22T11:59:02.577Z,99800.31
2022-08-22T12:02:12.168Z,99810.91
2022-08-22T12:05:26.655Z,99803.44
2022-08-22T12:08:28.938Z,99799.91
2022-08-22T12:11:54.001Z,99796.00
2022-08-22T12:15:19.270Z,99794.06
2022-08-22T12:18:33.458Z,99796.41
2022-08-22T12:21:52.889Z,99797.59
2022-08-22T12:25:28.153Z,99794.84
2022-08-22T12:28:52.684Z,99792.91
2022-08-22T12:32:27.902Z,99795.25
2022-08-22T12:36:08.817Z,99797.56
2022-08-22T12:39:20.110Z,99788.97
2022-08-22T12:42:25.326Z,99792.84
2022-08-22T12:45:33.756Z,99788.53
2022-08-22T12:48:35.737Z,99784.66
2022-08-22T12:52:04.338Z,99786.59
2022-08-22T12:55:21.970Z,99789.34
2022-08-22T12:59:09.002Z,99788.19
2022-08-22T13:02:23.549Z,99796.00
2022-08-22T13:05:29.085Z,99801.47
2022-08-22T13:08:35.189Z,99802.66
2022-08-22T13:11:40.522Z,99805.78
2022-08-22T13:14:46.062Z,99806.56
2022-08-22T13:17:53.034Z,99802.66
2022-08-22T13:20:58.164Z,99802.66
2022-08-22T13:24:10.584Z,99810.09
2022-08-22T13:27:20.469Z,99810.50
2022-08-22T13:30:28.907Z,99812.44
2022-08-22T13:33:35.914Z,99802.63
2022-08-22T13:36:51.634Z,99810.44
2022-08-22T13:40:00.909Z,99807.72
2022-08-22T13:43:09.186Z,99820.25
2022-08-22T13:46:11.522Z,99821.81
2022-08-22T13:49:19.466Z,99822.97
2022-08-22T13:52:31.671Z,99834.31
2022-08-22T13:55:48.978Z,99837.44
2022-08-22T13:58:57.154Z,99842.94
2022-08-22T14:02:09.709Z,99837.06
2022-08-22T14:05:46.425Z,99838.25
2022-08-22T14:08:52.239Z,99835.09
2022-08-22T14:12:11.958Z,99834.69
2022-08-22T14:15:23.021Z,99835.88
2022-08-22T14:18:31.523Z,99825.31
2022-08-22T14:21:53.559Z,99826.09
2022-08-22T14:25:07.222Z,99830.41
2022-08-22T14:28:30.342Z,99823.34
2022-08-22T14:31:33.768Z,99804.97
2022-08-22T14:34:41.249Z,99813.16
2022-08-22T14:37:52.401Z,99809.25
2022-08-22T14:41:08.492Z,99810.81
2022-08-22T14:44:32.361Z,99805.69
2022-08-22T14:47:55.164Z,99811.13
2022-08-22T14:51:21.306Z,99815.41
2022-08-22T14:54:28.948Z,99824.38
2022-08-22T14:57:34.858Z,99825.13
2022-08-22T15:00:40.826Z,99825.87
2022-08-22T15:03:44.031Z,99827.41
2022-08-22T15:06:55.279Z,99823.03
2022-08-22T15:10:07.452Z,99812.41
2022-08-22T15:13:21.352Z,99822.50
2022-08-22T15:16:34.627Z,99815.91
2022-08-22T15:19:41.239Z,99822.78
2022-08-22T15:22:46.042Z,99820.78
2022-08-22T15:26:17.760Z,99832.16
2022-08-22T15:29:26.344Z,99834.09
2022-08-22T15:32:31.577Z,99834.84
2022-08-22T15:35:39.039Z,99834.09
2022-08-22T15:38:56.680Z,99831.00
2022-08-22T15:42:00.533Z,99831.06
2022-08-22T15:45:04.718Z,99826.69
2022-08-22T15:48:25.813Z,99832.84
2022-08-22T15:51:41.377Z,99840.69
2022-08-22T15:54:46.885Z,99852.84
2022-08-22T15:58:05.014Z,99859.78
2022-08-22T16:01:18.917Z,99864.41
2022-08-22T16:04:47.139Z,99867.09
2022-08-22T16:07:58.210Z,99859.72
2022-08-22T16:11:03.510Z,99862.91
2022-08-22T16:14:21.688Z,99862.91
2022-08-22T16:17:30.080Z,99861.78
2022-08-22T16:20:32.066Z,99863.75
2022-08-22T16:23:56.263Z,99862.22
2022-08-22T16:26:58.715Z,99859.44
2022-08-22T16:30:09.281Z,99856.66
2022-08-22T16:33:27.288Z,99860.16
2022-08-22T16:37:03.682Z,99860.22
2022-08-22T16:40:18.465Z,99860.53
2022-08-22T16:43:21.484Z,99857.38
2022-08-22T16:46:31.369Z,99849.50
2022-08-22T16:49:49.489Z,99858.06
2022-08-22T16:52:56.729Z,99857.69
2022-08-22T16:56:13.832Z,99856.87
2022-08-22T16:59:33.215Z,99860.38
2022-08-22T17:02:52.399Z,99861.19
2022-08-22T17:06:00.153Z,99860.69
2022-08-22T17:09:21.691Z,99850.16
2022-08-22T17:12:42.341Z,99858.25
2022-08-22T17:16:07.016Z,99857.88
2022-08-22T17:19:31.520Z,99877.84
2022-08-22T17:22:48.838Z,99879.84
2022-08-22T17:26:12.062Z,99887.31
2022-08-22T17:29:26.728Z,99897.09
2022-08-22T17:32:34.740Z,99899.41
2022-08-22T17:35:43.098Z,99906.03
2022-08-22T17:39:03.380Z,99907.22
2022-08-22T17:42:36.355Z,99905.47
2022-08-22T17:46:03.269Z,99906.12
2022-08-22T17:49:11.485Z,99910.22
2022-08-22T17:52:22.317Z,99911.75
2022-08-22T17:55:34.021Z,99911.38
2022-08-22T17:58:45.652Z,99912.44
2022-08-22T18:02:08.401Z,99910.06
2022-08-22T18:06:01.636Z,99915.97
2022-08-22T18:09:18.510Z,99912.06
2022-08-22T18:12:34.054Z,99912.41
2022-08-22T18:15:47.674Z,99916.00
2022-08-22T18:18:49.906Z,99906.16
2022-08-22T18:21:59.582Z,99909.75
2022-08-22T18:25:11.022Z,99901.91
2022-08-22T18:28:26.877Z,99910.91
2022-08-22T18:31:37.790Z,99915.22
2022-08-22T18:34:56.133Z,99916.28
2022-08-22T18:38:26.429Z,99921.00
2022-08-22T18:41:35.531Z,99920.44
2022-08-22T18:44:40.062Z,99927.72
2022-08-22T18:47:42.444Z,99933.06
2022-08-22T18:50:45.390Z,99931.31
2022-08-22T18:53:52.967Z,99923.19
2022-08-22T18:57:08.083Z,99929.06
2022-08-22T19:00:20.726Z,99930.63
2022-08-22T19:03:40.273Z,99934.91
2022-08-22T19:07:24.314Z,99938.88
2022-08-22T19:10:35.859Z,99939.19
2022-08-22T19:14:02.553Z,99945.50
2022-08-22T19:17:46.537Z,99953.31
2022-08-22T19:21:35.690Z,99954.87
2022-08-22T19:25:04.587Z,99958.41
2022-08-22T19:28:11.319Z,99960.41
2022-08-22T19:31:24.880Z,99959.28
2022-08-22T19:34:29.694Z,99959.78
2022-08-22T19:37:55.425Z,99959.56
2022-08-22T19:40:58.441Z,99961.56
2022-08-22T19:44:01.018Z,99964.50
2022-08-22T19:47:07.215Z,99964.91
2022-08-22T19:50:27.957Z,99960.63
2022-08-22T19:53:47.219Z,99957.19
2022-08-22T19:57:20.838Z,99957.00
2022-08-22T20:00:44.495Z,99966.47
2022-08-22T20:03:55.257Z,99964.22
2022-08-22T20:07:22.613Z,99969.87
2022-08-22T20:11:02.477Z,99966.75
2022-08-22T20:14:11.909Z,99969.59
2022-08-22T20:17:34.143Z,99969.53
2022-08-22T20:20:55.258Z,99968.16
2022-08-22T20:23:57.813Z,99967.59
2022-08-22T20:27:14.006Z,99967.53
2022-08-22T20:30:28.179Z,99964.78
2022-08-22T20:33:39.724Z,99957.53
2022-08-22T20:36:45.703Z,99949.78
2022-08-22T20:39:58.701Z,99956.00
2022-08-22T20:43:10.757Z,99951.69
2022-08-22T20:46:37.766Z,99944.62
2022-08-22T20:49:51.813Z,99943.19
2022-08-22T20:53:09.657Z,99947.19
2022-08-22T20:56:12.551Z,99952.00
2022-08-22T20:59:23.643Z,99950.16
2022-08-22T21:02:33.862Z,99954.31
2022-08-22T21:05:41.686Z,99953.78
2022-08-22T21:08:45.978Z,99955.09
2022-08-22T21:11:50.654Z,99954.69
2022-08-22T21:14:53.087Z,99943.78
2022-08-22T21:17:55.163Z,99936.12
2022-08-22T21:21:18.859Z,99945.25
2022-08-22T21:24:20.949Z,99937.81
2022-08-22T21:27:34.220Z,99941.81
2022-08-22T21:30:36.297Z,99941.50
2022-08-22T21:33:45.143Z,99936.38
2022-08-22T21:36:50.891Z,99935.69
2022-08-22T21:40:09.176Z,99935.53
2022-08-22T21:43:53.976Z,99934.44
2022-08-22T21:47:13.253Z,99934.78
2022-08-22T21:50:19.121Z,99946.38
2022-08-22T21:53:28.667Z,99945.13
2022-08-22T21:56:30.733Z,99947.50
2022-08-22T21:59:51.773Z,99948.37
2022-08-22T22:03:02.886Z,99951.91
2022-08-22T22:06:06.582Z,99948.06
2022-08-22T22:09:13.243Z,99954.56
2022-08-22T22:12:17.506Z,99962.06
2022-08-22T22:15:23.697Z,99965.72
2022-08-22T22:18:30.299Z,99974.59
2022-08-22T22:21:32.407Z,99982.22
2022-08-22T22:24:34.799Z,99980.97
2022-08-22T22:27:37.399Z,99978.78
2022-08-22T22:30:40.281Z,99987.19
2022-08-22T22:33:43.086Z,99986.91
2022-08-22T22:36:45.833Z,99984.19
2022-08-22T22:39:47.948Z,99991.81
2022-08-22T22:42:50.694Z,99989.53
2022-08-22T22:45:52.789Z,99991.03
2022-08-22T22:48:56.720Z,99992.31
2022-08-22T22:52:01.911Z,99985.34
2022-08-22T22:55:07.549Z,99989.88
2022-08-22T22:58:10.341Z,99991.22
2022-08-22T23:01:21.256Z,99999.28
2022-08-22T23:04:23.382Z,99998.56
2022-08-22T23:07:26.734Z,100007.84
2022-08-22T23:10:31.439Z,100008.56
2022-08-22T23:13:35.245Z,100001.47
2022-08-22T23:16:42.106Z,99997.03
2022-08-22T23:19:46.306Z,100002.19
2022-08-22T23:22:49.902Z,100011.16
2022-08-22T23:25:52.374Z,100006.28
2022-08-22T23:28:54.753Z,100004.00
2022-08-22T23:32:03.366Z,100005.09
2022-08-22T23:35:06.389Z,100003.28
2022-08-22T23:38:08.725Z,100004.28
2022-08-22T23:41:12.302Z,99999.84
2022-08-22T23:44:17.917Z,99996.72
2022-08-22T23:47:19.981Z,99994.66
2022-08-22T23:50:22.299Z,99992.03
2022-08-22T23:53:24.431Z,99995.22
2022-08-22T23:56:32.560Z,99993.28
2022-08-22T23:59:36.978Z,99999.34
